sensor_id;sensor_type;location;lat;lon;timestamp;temperature;humidity
30304;DHT22;17112;48.636;10.152;2023-03-05T00:01:16;5.10;61.40
30304;DHT22;17112;48.636;10.152;2023-03-05T00:03:43;5.10;61.60
30304;DHT22;17112;48.636;10.152;2023-03-05T00:06:09;5.10;61.40
30304;DHT22;17112;48.636;10.152;2023-03-05T00:08:35;5.10;61.30
30304;DHT22;17112;48.636;10.152;2023-03-05T00:11:06;5.20;61.40
30304;DHT22;17112;48.636;10.152;2023-03-05T00:13:32;5.10;61.40
30304;DHT22;17112;48.636;10.152;2023-03-05T00:16:00;5.10;61.30
30304;DHT22;17112;48.636;10.152;2023-03-05T00:18:26;5.20;61.30
30304;DHT22;17112;48.636;10.152;2023-03-05T00:20:52;5.20;61.40
30304;DHT22;17112;48.636;10.152;2023-03-05T00:23:17;5.10;61.30
30304;DHT22;17112;48.636;10.152;2023-03-05T00:25:43;5.20;61.40
30304;DHT22;17112;48.636;10.152;2023-03-05T00:28:10;5.20;61.50
30304;DHT22;17112;48.636;10.152;2023-03-05T00:30:36;5.20;61.50
30304;DHT22;17112;48.636;10.152;2023-03-05T00:33:02;5.20;61.50
30304;DHT22;17112;48.636;10.152;2023-03-05T00:35:27;5.20;61.50
30304;DHT22;17112;48.636;10.152;2023-03-05T00:37:53;5.20;61.50
30304;DHT22;17112;48.636;10.152;2023-03-05T00:40:20;5.20;61.40
30304;DHT22;17112;48.636;10.152;2023-03-05T00:42:46;5.30;61.50
30304;DHT22;17112;48.636;10.152;2023-03-05T00:45:12;5.30;61.50
30304;DHT22;17112;48.636;10.152;2023-03-05T00:47:38;5.20;61.40
30304;DHT22;17112;48.636;10.152;2023-03-05T00:50:05;5.30;61.50
30304;DHT22;17112;48.636;10.152;2023-03-05T00:52:31;5.30;61.50
30304;DHT22;17112;48.636;10.152;2023-03-05T00:54:57;5.30;61.50
30304;DHT22;17112;48.636;10.152;2023-03-05T00:57:23;5.30;61.50
30304;DHT22;17112;48.636;10.152;2023-03-05T00:59:48;5.30;61.50
30304;DHT22;17112;48.636;10.152;2023-03-05T01:02:14;5.30;61.60
30304;DHT22;17112;48.636;10.152;2023-03-05T01:04:40;5.30;61.60
30304;DHT22;17112;48.636;10.152;2023-03-05T01:07:06;5.30;61.50
30304;DHT22;17112;48.636;10.152;2023-03-05T01:09:31;5.30;62.20
30304;DHT22;17112;48.636;10.152;2023-03-05T01:11:57;5.30;61.40
30304;DHT22;17112;48.636;10.152;2023-03-05T01:14:24;5.30;61.40
30304;DHT22;17112;48.636;10.152;2023-03-05T01:16:52;5.30;61.50
30304;DHT22;17112;48.636;10.152;2023-03-05T01:19:18;5.30;61.50
30304;DHT22;17112;48.636;10.152;2023-03-05T01:21:44;5.30;61.50
30304;DHT22;17112;48.636;10.152;2023-03-05T01:24:11;5.30;61.50
30304;DHT22;17112;48.636;10.152;2023-03-05T01:26:37;5.30;61.60
30304;DHT22;17112;48.636;10.152;2023-03-05T01:29:03;5.30;61.50
30304;DHT22;17112;48.636;10.152;2023-03-05T01:31:29;5.30;61.60
30304;DHT22;17112;48.636;10.152;2023-03-05T01:33:54;5.30;62.40
30304;DHT22;17112;48.636;10.152;2023-03-05T01:36:21;5.30;61.60
30304;DHT22;17112;48.636;10.152;2023-03-05T01:38:50;5.30;61.70
30304;DHT22;17112;48.636;10.152;2023-03-05T01:41:17;5.30;61.70
30304;DHT22;17112;48.636;10.152;2023-03-05T01:43:44;5.30;61.70
30304;DHT22;17112;48.636;10.152;2023-03-05T01:51:44;5.30;62.00
30304;DHT22;17112;48.636;10.152;2023-03-05T01:54:14;5.40;61.80
30304;DHT22;17112;48.636;10.152;2023-03-05T01:56:42;5.40;61.80
30304;DHT22;17112;48.636;10.152;2023-03-05T01:59:10;5.30;61.80
30304;DHT22;17112;48.636;10.152;2023-03-05T02:01:42;5.40;62.60
30304;DHT22;17112;48.636;10.152;2023-03-05T02:04:10;5.40;62.00
30304;DHT22;17112;48.636;10.152;2023-03-05T02:06:38;5.40;61.80
30304;DHT22;17112;48.636;10.152;2023-03-05T02:09:04;5.40;61.90
30304;DHT22;17112;48.636;10.152;2023-03-05T02:11:31;5.40;61.90
30304;DHT22;17112;48.636;10.152;2023-03-05T02:13:57;5.40;61.90
30304;DHT22;17112;48.636;10.152;2023-03-05T02:16:23;5.40;61.90
30304;DHT22;17112;48.636;10.152;2023-03-05T02:18:49;5.40;61.90
30304;DHT22;17112;48.636;10.152;2023-03-05T02:21:26;5.40;61.90
30304;DHT22;17112;48.636;10.152;2023-03-05T02:23:53;5.40;62.00
30304;DHT22;17112;48.636;10.152;2023-03-05T02:26:18;5.40;61.80
30304;DHT22;17112;48.636;10.152;2023-03-05T02:28:54;5.40;61.90
30304;DHT22;17112;48.636;10.152;2023-03-05T02:31:23;5.40;61.90
30304;DHT22;17112;48.636;10.152;2023-03-05T02:33:49;5.40;61.80
30304;DHT22;17112;48.636;10.152;2023-03-05T02:36:15;5.40;62.50
30304;DHT22;17112;48.636;10.152;2023-03-05T02:38:43;5.40;61.80
30304;DHT22;17112;48.636;10.152;2023-03-05T02:41:09;5.40;61.80
30304;DHT22;17112;48.636;10.152;2023-03-05T02:43:35;5.40;61.90
30304;DHT22;17112;48.636;10.152;2023-03-05T02:46:01;5.40;61.90
30304;DHT22;17112;48.636;10.152;2023-03-05T02:48:27;5.40;61.90
30304;DHT22;17112;48.636;10.152;2023-03-05T02:50:53;5.40;61.90
30304;DHT22;17112;48.636;10.152;2023-03-05T02:53:19;5.40;62.00
30304;DHT22;17112;48.636;10.152;2023-03-05T02:55:48;5.40;62.10
30304;DHT22;17112;48.636;10.152;2023-03-05T02:58:15;5.40;62.00
30304;DHT22;17112;48.636;10.152;2023-03-05T03:00:41;5.40;61.90
30304;DHT22;17112;48.636;10.152;2023-03-05T03:03:07;5.40;61.90
30304;DHT22;17112;48.636;10.152;2023-03-05T03:05:35;5.50;62.00
30304;DHT22;17112;48.636;10.152;2023-03-05T03:08:01;5.40;62.10
30304;DHT22;17112;48.636;10.152;2023-03-05T03:10:26;5.50;62.00
30304;DHT22;17112;48.636;10.152;2023-03-05T03:12:52;5.40;61.90
30304;DHT22;17112;48.636;10.152;2023-03-05T03:15:18;5.40;62.10
30304;DHT22;17112;48.636;10.152;2023-03-05T03:17:44;5.40;62.30
30304;DHT22;17112;48.636;10.152;2023-03-05T03:20:12;5.40;62.40
30304;DHT22;17112;48.636;10.152;2023-03-05T03:22:39;5.40;62.50
30304;DHT22;17112;48.636;10.152;2023-03-05T03:25:06;5.40;62.70
30304;DHT22;17112;48.636;10.152;2023-03-05T03:27:31;5.40;62.70
30304;DHT22;17112;48.636;10.152;2023-03-05T03:29:57;5.40;62.90
30304;DHT22;17112;48.636;10.152;2023-03-05T03:32:27;5.30;62.50
30304;DHT22;17112;48.636;10.152;2023-03-05T03:34:53;5.30;62.50
30304;DHT22;17112;48.636;10.152;2023-03-05T03:37:19;5.30;62.90
30304;DHT22;17112;48.636;10.152;2023-03-05T03:39:45;5.30;62.80
30304;DHT22;17112;48.636;10.152;2023-03-05T03:42:10;5.30;63.10
30304;DHT22;17112;48.636;10.152;2023-03-05T03:44:36;5.20;63.20
30304;DHT22;17112;48.636;10.152;2023-03-05T03:47:02;5.20;63.40
30304;DHT22;17112;48.636;10.152;2023-03-05T03:49:27;5.20;63.40
30304;DHT22;17112;48.636;10.152;2023-03-05T03:51:53;5.20;63.30
30304;DHT22;17112;48.636;10.152;2023-03-05T03:54:20;5.20;63.40
30304;DHT22;17112;48.636;10.152;2023-03-05T03:56:46;5.20;63.40
30304;DHT22;17112;48.636;10.152;2023-03-05T03:59:12;5.30;63.00
30304;DHT22;17112;48.636;10.152;2023-03-05T04:01:38;5.20;63.00
30304;DHT22;17112;48.636;10.152;2023-03-05T04:04:04;5.20;62.90
30304;DHT22;17112;48.636;10.152;2023-03-05T04:06:31;5.20;62.80
30304;DHT22;17112;48.636;10.152;2023-03-05T04:08:57;5.20;62.80
30304;DHT22;17112;48.636;10.152;2023-03-05T04:11:22;5.20;63.00
30304;DHT22;17112;48.636;10.152;2023-03-05T04:13:48;5.10;63.20
30304;DHT22;17112;48.636;10.152;2023-03-05T04:16:15;5.10;63.50
30304;DHT22;17112;48.636;10.152;2023-03-05T04:18:41;5.10;63.40
30304;DHT22;17112;48.636;10.152;2023-03-05T04:21:07;5.10;63.60
30304;DHT22;17112;48.636;10.152;2023-03-05T04:23:33;5.00;63.60
30304;DHT22;17112;48.636;10.152;2023-03-05T04:25:59;5.10;63.80
30304;DHT22;17112;48.636;10.152;2023-03-05T04:28:25;5.10;63.90
30304;DHT22;17112;48.636;10.152;2023-03-05T04:30:50;5.10;63.90
30304;DHT22;17112;48.636;10.152;2023-03-05T04:33:17;5.10;63.80
30304;DHT22;17112;48.636;10.152;2023-03-05T04:35:43;5.10;63.90
30304;DHT22;17112;48.636;10.152;2023-03-05T04:38:09;5.20;63.90
30304;DHT22;17112;48.636;10.152;2023-03-05T04:40:36;5.20;63.80
30304;DHT22;17112;48.636;10.152;2023-03-05T04:43:02;5.20;63.70
30304;DHT22;17112;48.636;10.152;2023-03-05T04:45:28;5.20;63.70
30304;DHT22;17112;48.636;10.152;2023-03-05T04:47:54;5.20;63.70
30304;DHT22;17112;48.636;10.152;2023-03-05T04:50:20;5.20;63.70
30304;DHT22;17112;48.636;10.152;2023-03-05T04:52:46;5.30;63.80
30304;DHT22;17112;48.636;10.152;2023-03-05T04:55:13;5.30;63.80
30304;DHT22;17112;48.636;10.152;2023-03-05T04:57:39;5.30;63.80
30304;DHT22;17112;48.636;10.152;2023-03-05T05:00:09;5.30;63.80
30304;DHT22;17112;48.636;10.152;2023-03-05T05:02:39;5.30;63.90
30304;DHT22;17112;48.636;10.152;2023-03-05T05:05:07;5.30;63.70
30304;DHT22;17112;48.636;10.152;2023-03-05T05:07:32;5.30;63.60
30304;DHT22;17112;48.636;10.152;2023-03-05T05:09:58;5.30;63.40
30304;DHT22;17112;48.636;10.152;2023-03-05T05:12:27;5.30;63.50
30304;DHT22;17112;48.636;10.152;2023-03-05T05:14:53;5.30;63.60
30304;DHT22;17112;48.636;10.152;2023-03-05T05:17:19;5.30;63.60
30304;DHT22;17112;48.636;10.152;2023-03-05T05:19:44;5.30;63.70
30304;DHT22;17112;48.636;10.152;2023-03-05T05:22:10;5.30;63.70
30304;DHT22;17112;48.636;10.152;2023-03-05T05:24:36;5.30;63.70
30304;DHT22;17112;48.636;10.152;2023-03-05T05:27:01;5.30;63.80
30304;DHT22;17112;48.636;10.152;2023-03-05T05:29:27;5.40;63.80
30304;DHT22;17112;48.636;10.152;2023-03-05T05:31:53;5.40;63.80
30304;DHT22;17112;48.636;10.152;2023-03-05T05:34:18;5.30;63.70
30304;DHT22;17112;48.636;10.152;2023-03-05T05:36:44;5.40;63.90
30304;DHT22;17112;48.636;10.152;2023-03-05T05:39:10;5.40;63.90
30304;DHT22;17112;48.636;10.152;2023-03-05T05:41:35;5.40;64.10
30304;DHT22;17112;48.636;10.152;2023-03-05T05:44:01;5.40;63.90
30304;DHT22;17112;48.636;10.152;2023-03-05T05:46:26;5.40;63.90
30304;DHT22;17112;48.636;10.152;2023-03-05T05:48:53;5.30;63.80
30304;DHT22;17112;48.636;10.152;2023-03-05T05:51:21;5.30;63.80
30304;DHT22;17112;48.636;10.152;2023-03-05T05:53:48;5.30;63.80
30304;DHT22;17112;48.636;10.152;2023-03-05T05:56:14;5.30;63.80
30304;DHT22;17112;48.636;10.152;2023-03-05T05:58:44;5.30;63.90
30304;DHT22;17112;48.636;10.152;2023-03-05T06:01:18;5.30;63.90
30304;DHT22;17112;48.636;10.152;2023-03-05T06:03:44;5.30;64.10
30304;DHT22;17112;48.636;10.152;2023-03-05T06:06:11;5.30;64.00
30304;DHT22;17112;48.636;10.152;2023-03-05T06:08:38;5.20;64.70
30304;DHT22;17112;48.636;10.152;2023-03-05T06:11:04;5.20;64.00
30304;DHT22;17112;48.636;10.152;2023-03-05T06:13:30;5.30;64.10
30304;DHT22;17112;48.636;10.152;2023-03-05T06:16:03;5.30;64.10
30304;DHT22;17112;48.636;10.152;2023-03-05T06:18:29;5.20;64.10
30304;DHT22;17112;48.636;10.152;2023-03-05T06:21:01;5.30;63.80
30304;DHT22;17112;48.636;10.152;2023-03-05T06:23:27;5.30;63.60
30304;DHT22;17112;48.636;10.152;2023-03-05T06:25:53;5.30;63.40
30304;DHT22;17112;48.636;10.152;2023-03-05T06:28:19;5.20;63.30
30304;DHT22;17112;48.636;10.152;2023-03-05T06:30:45;5.20;63.30
30304;DHT22;17112;48.636;10.152;2023-03-05T06:33:11;5.20;63.60
30304;DHT22;17112;48.636;10.152;2023-03-05T06:35:38;5.10;63.50
30304;DHT22;17112;48.636;10.152;2023-03-05T06:38:07;5.10;63.70
30304;DHT22;17112;48.636;10.152;2023-03-05T06:40:34;5.00;63.60
30304;DHT22;17112;48.636;10.152;2023-03-05T06:42:59;5.00;63.70
30304;DHT22;17112;48.636;10.152;2023-03-05T06:45:25;5.00;64.00
30304;DHT22;17112;48.636;10.152;2023-03-05T06:47:51;5.20;64.10
30304;DHT22;17112;48.636;10.152;2023-03-05T06:50:17;5.00;64.20
30304;DHT22;17112;48.636;10.152;2023-03-05T06:52:43;4.90;64.20
30304;DHT22;17112;48.636;10.152;2023-03-05T06:55:08;4.90;64.30
30304;DHT22;17112;48.636;10.152;2023-03-05T06:57:35;4.90;64.40
30304;DHT22;17112;48.636;10.152;2023-03-05T07:00:03;4.90;64.30
30304;DHT22;17112;48.636;10.152;2023-03-05T07:02:32;4.90;64.30
30304;DHT22;17112;48.636;10.152;2023-03-05T07:04:58;4.90;64.20
30304;DHT22;17112;48.636;10.152;2023-03-05T07:07:23;4.90;64.30
30304;DHT22;17112;48.636;10.152;2023-03-05T07:09:49;4.90;64.40
30304;DHT22;17112;48.636;10.152;2023-03-05T07:12:17;4.90;64.60
30304;DHT22;17112;48.636;10.152;2023-03-05T07:14:43;4.90;64.80
30304;DHT22;17112;48.636;10.152;2023-03-05T07:17:08;4.90;65.00
30304;DHT22;17112;48.636;10.152;2023-03-05T07:19:34;4.90;64.90
30304;DHT22;17112;48.636;10.152;2023-03-05T07:21:59;4.90;64.60
30304;DHT22;17112;48.636;10.152;2023-03-05T07:24:25;5.00;65.40
30304;DHT22;17112;48.636;10.152;2023-03-05T07:26:55;5.00;64.90
30304;DHT22;17112;48.636;10.152;2023-03-05T07:29:22;5.00;64.70
30304;DHT22;17112;48.636;10.152;2023-03-05T07:31:48;5.00;64.90
30304;DHT22;17112;48.636;10.152;2023-03-05T07:34:14;5.00;65.00
30304;DHT22;17112;48.636;10.152;2023-03-05T07:36:40;5.00;64.90
30304;DHT22;17112;48.636;10.152;2023-03-05T07:39:06;5.00;65.30
30304;DHT22;17112;48.636;10.152;2023-03-05T07:41:33;5.00;65.30
30304;DHT22;17112;48.636;10.152;2023-03-05T07:43:58;5.00;65.30
30304;DHT22;17112;48.636;10.152;2023-03-05T07:46:28;5.00;65.00
30304;DHT22;17112;48.636;10.152;2023-03-05T07:48:55;5.00;65.00
30304;DHT22;17112;48.636;10.152;2023-03-05T07:51:21;5.10;64.90
30304;DHT22;17112;48.636;10.152;2023-03-05T07:53:49;5.10;65.60
30304;DHT22;17112;48.636;10.152;2023-03-05T07:56:26;5.10;65.60
30304;DHT22;17112;48.636;10.152;2023-03-05T07:58:53;5.10;65.40
30304;DHT22;17112;48.636;10.152;2023-03-05T08:01:18;5.10;65.20
30304;DHT22;17112;48.636;10.152;2023-03-05T08:03:44;5.10;65.10
30304;DHT22;17112;48.636;10.152;2023-03-05T08:06:11;5.10;65.40
30304;DHT22;17112;48.636;10.152;2023-03-05T08:08:37;5.10;65.80
30304;DHT22;17112;48.636;10.152;2023-03-05T08:11:08;5.20;65.30
30304;DHT22;17112;48.636;10.152;2023-03-05T08:13:34;5.20;65.10
30304;DHT22;17112;48.636;10.152;2023-03-05T08:16:04;5.20;65.20
30304;DHT22;17112;48.636;10.152;2023-03-05T08:18:30;5.20;65.50
30304;DHT22;17112;48.636;10.152;2023-03-05T08:20:56;5.30;65.20
30304;DHT22;17112;48.636;10.152;2023-03-05T08:23:22;5.30;65.20
30304;DHT22;17112;48.636;10.152;2023-03-05T08:25:48;5.30;65.40
30304;DHT22;17112;48.636;10.152;2023-03-05T08:28:13;5.30;65.10
30304;DHT22;17112;48.636;10.152;2023-03-05T08:30:41;5.30;64.90
30304;DHT22;17112;48.636;10.152;2023-03-05T08:33:06;5.30;64.80
30304;DHT22;17112;48.636;10.152;2023-03-05T08:35:32;5.40;64.90
30304;DHT22;17112;48.636;10.152;2023-03-05T08:37:58;5.40;65.30
30304;DHT22;17112;48.636;10.152;2023-03-05T08:40:23;5.40;65.00
30304;DHT22;17112;48.636;10.152;2023-03-05T08:42:49;5.40;64.90
30304;DHT22;17112;48.636;10.152;2023-03-05T08:45:17;5.40;64.90
30304;DHT22;17112;48.636;10.152;2023-03-05T08:47:43;5.50;64.80
30304;DHT22;17112;48.636;10.152;2023-03-05T08:50:09;5.50;64.90
30304;DHT22;17112;48.636;10.152;2023-03-05T08:52:35;5.50;64.90
30304;DHT22;17112;48.636;10.152;2023-03-05T08:55:00;5.60;64.90
30304;DHT22;17112;48.636;10.152;2023-03-05T08:57:26;5.60;65.00
30304;DHT22;17112;48.636;10.152;2023-03-05T08:59:52;5.60;65.10
30304;DHT22;17112;48.636;10.152;2023-03-05T09:02:17;5.70;65.10
30304;DHT22;17112;48.636;10.152;2023-03-05T09:04:43;5.80;64.80
30304;DHT22;17112;48.636;10.152;2023-03-05T09:07:08;5.80;64.60
30304;DHT22;17112;48.636;10.152;2023-03-05T09:09:35;5.80;64.60
30304;DHT22;17112;48.636;10.152;2023-03-05T09:12:01;5.80;64.40
30304;DHT22;17112;48.636;10.152;2023-03-05T09:14:27;5.80;64.30
30304;DHT22;17112;48.636;10.152;2023-03-05T09:16:54;5.90;64.40
30304;DHT22;17112;48.636;10.152;2023-03-05T09:19:20;5.90;64.30
30304;DHT22;17112;48.636;10.152;2023-03-05T09:21:45;5.90;64.40
30304;DHT22;17112;48.636;10.152;2023-03-05T09:24:12;5.90;64.40
30304;DHT22;17112;48.636;10.152;2023-03-05T09:26:38;5.90;64.50
30304;DHT22;17112;48.636;10.152;2023-03-05T09:29:05;6.00;64.50
30304;DHT22;17112;48.636;10.152;2023-03-05T09:31:33;6.00;64.60
30304;DHT22;17112;48.636;10.152;2023-03-05T09:33:59;6.00;64.60
30304;DHT22;17112;48.636;10.152;2023-03-05T09:36:27;6.10;64.70
30304;DHT22;17112;48.636;10.152;2023-03-05T09:38:53;6.20;64.60
30304;DHT22;17112;48.636;10.152;2023-03-05T09:52:53;6.30;63.10
30304;DHT22;17112;48.636;10.152;2023-03-05T09:55:39;6.30;63.10
30304;DHT22;17112;48.636;10.152;2023-03-05T09:58:13;6.30;63.10
30304;DHT22;17112;48.636;10.152;2023-03-05T10:00:45;6.30;62.90
30304;DHT22;17112;48.636;10.152;2023-03-05T10:03:19;6.30;62.90
30304;DHT22;17112;48.636;10.152;2023-03-05T10:06:04;6.30;62.80
30304;DHT22;17112;48.636;10.152;2023-03-05T10:14:31;6.30;62.90
30304;DHT22;17112;48.636;10.152;2023-03-05T10:22:22;6.50;62.80
30304;DHT22;17112;48.636;10.152;2023-03-05T10:25:43;6.50;62.80
30304;DHT22;17112;48.636;10.152;2023-03-05T10:27:49;6.60;62.70
30304;DHT22;17112;48.636;10.152;2023-03-05T10:33:34;6.70;62.50
30304;DHT22;17112;48.636;10.152;2023-03-05T10:41:43;6.80;62.20
30304;DHT22;17112;48.636;10.152;2023-03-05T10:44:42;6.90;62.30
30304;DHT22;17112;48.636;10.152;2023-03-05T10:49:52;7.00;61.70
30304;DHT22;17112;48.636;10.152;2023-03-05T10:52:44;7.10;61.90
30304;DHT22;17112;48.636;10.152;2023-03-05T10:55:19;7.10;60.90
30304;DHT22;17112;48.636;10.152;2023-03-05T10:57:45;7.20;60.90
30304;DHT22;17112;48.636;10.152;2023-03-05T11:00:24;7.10;60.30
30304;DHT22;17112;48.636;10.152;2023-03-05T11:03:07;7.10;60.60
30304;DHT22;17112;48.636;10.152;2023-03-05T11:08:38;7.10;59.90
30304;DHT22;17112;48.636;10.152;2023-03-05T11:11:16;7.10;60.20
30304;DHT22;17112;48.636;10.152;2023-03-05T11:13:51;7.10;59.80
30304;DHT22;17112;48.636;10.152;2023-03-05T11:16:23;7.00;60.00
30304;DHT22;17112;48.636;10.152;2023-03-05T11:18:49;7.00;60.10
30304;DHT22;17112;48.636;10.152;2023-03-05T11:21:23;7.00;60.30
30304;DHT22;17112;48.636;10.152;2023-03-05T11:24:12;7.00;60.20
30304;DHT22;17112;48.636;10.152;2023-03-05T11:26:51;6.90;60.00
30304;DHT22;17112;48.636;10.152;2023-03-05T11:29:47;6.90;60.20
30304;DHT22;17112;48.636;10.152;2023-03-05T11:32:23;6.90;60.10
30304;DHT22;17112;48.636;10.152;2023-03-05T11:34:49;7.00;60.40
30304;DHT22;17112;48.636;10.152;2023-03-05T11:40:19;7.10;60.20
30304;DHT22;17112;48.636;10.152;2023-03-05T11:42:54;7.10;60.00
30304;DHT22;17112;48.636;10.152;2023-03-05T11:45:24;7.10;59.90
30304;DHT22;17112;48.636;10.152;2023-03-05T11:47:53;7.10;60.00
30304;DHT22;17112;48.636;10.152;2023-03-05T11:50:30;7.10;59.90
30304;DHT22;17112;48.636;10.152;2023-03-05T11:53:21;7.10;59.40
30304;DHT22;17112;48.636;10.152;2023-03-05T12:00:50;7.10;59.30
30304;DHT22;17112;48.636;10.152;2023-03-05T12:03:19;7.10;59.50
30304;DHT22;17112;48.636;10.152;2023-03-05T12:05:55;7.10;59.50
30304;DHT22;17112;48.636;10.152;2023-03-05T12:08:26;7.10;59.00
30304;DHT22;17112;48.636;10.152;2023-03-05T12:10:54;7.10;59.30
30304;DHT22;17112;48.636;10.152;2023-03-05T12:13:35;7.10;59.30
30304;DHT22;17112;48.636;10.152;2023-03-05T12:18:54;7.10;59.30
30304;DHT22;17112;48.636;10.152;2023-03-05T12:23:58;7.10;59.00
30304;DHT22;17112;48.636;10.152;2023-03-05T12:29:47;7.10;59.30
30304;DHT22;17112;48.636;10.152;2023-03-05T12:40:00;7.20;58.90
30304;DHT22;17112;48.636;10.152;2023-03-05T12:55:33;7.00;58.00
30304;DHT22;17112;48.636;10.152;2023-03-05T12:58:02;7.00;57.90
30304;DHT22;17112;48.636;10.152;2023-03-05T13:00:43;6.90;58.10
30304;DHT22;17112;48.636;10.152;2023-03-05T13:03:16;6.80;57.90
30304;DHT22;17112;48.636;10.152;2023-03-05T13:05:51;6.80;58.20
30304;DHT22;17112;48.636;10.152;2023-03-05T13:08:32;6.80;57.80
30304;DHT22;17112;48.636;10.152;2023-03-05T13:11:02;6.70;58.30
30304;DHT22;17112;48.636;10.152;2023-03-05T13:13:34;6.70;58.40
30304;DHT22;17112;48.636;10.152;2023-03-05T13:16:00;6.70;58.30
30304;DHT22;17112;48.636;10.152;2023-03-05T13:18:28;6.70;58.30
30304;DHT22;17112;48.636;10.152;2023-03-05T13:21:15;6.70;58.40
30304;DHT22;17112;48.636;10.152;2023-03-05T13:23:55;6.80;58.50
30304;DHT22;17112;48.636;10.152;2023-03-05T13:26:29;6.80;58.50
30304;DHT22;17112;48.636;10.152;2023-03-05T13:29:18;6.90;58.60
30304;DHT22;17112;48.636;10.152;2023-03-05T13:34:22;7.00;58.10
30304;DHT22;17112;48.636;10.152;2023-03-05T13:39:25;7.00;57.70
30304;DHT22;17112;48.636;10.152;2023-03-05T13:41:59;7.00;57.70
30304;DHT22;17112;48.636;10.152;2023-03-05T13:44:25;7.00;57.70
30304;DHT22;17112;48.636;10.152;2023-03-05T13:46:50;7.00;57.90
30304;DHT22;17112;48.636;10.152;2023-03-05T13:49:23;6.90;57.90
30304;DHT22;17112;48.636;10.152;2023-03-05T13:51:54;7.00;58.00
30304;DHT22;17112;48.636;10.152;2023-03-05T13:54:22;7.00;57.70
30304;DHT22;17112;48.636;10.152;2023-03-05T13:56:59;7.00;57.80
30304;DHT22;17112;48.636;10.152;2023-03-05T13:59:28;7.00;57.40
30304;DHT22;17112;48.636;10.152;2023-03-05T14:01:57;7.00;57.30
30304;DHT22;17112;48.636;10.152;2023-03-05T14:04:26;6.90;57.70
30304;DHT22;17112;48.636;10.152;2023-03-05T14:07:04;6.90;57.50
30304;DHT22;17112;48.636;10.152;2023-03-05T14:09:40;6.90;57.70
30304;DHT22;17112;48.636;10.152;2023-03-05T14:14:55;6.90;57.80
30304;DHT22;17112;48.636;10.152;2023-03-05T14:17:39;6.90;57.90
30304;DHT22;17112;48.636;10.152;2023-03-05T14:22:39;6.90;57.80
30304;DHT22;17112;48.636;10.152;2023-03-05T14:25:32;6.90;57.80
30304;DHT22;17112;48.636;10.152;2023-03-05T14:28:06;6.80;57.70
30304;DHT22;17112;48.636;10.152;2023-03-05T14:30:32;6.80;57.90
30304;DHT22;17112;48.636;10.152;2023-03-05T14:33:01;6.80;58.00
30304;DHT22;17112;48.636;10.152;2023-03-05T14:35:28;6.80;58.10
30304;DHT22;17112;48.636;10.152;2023-03-05T14:37:56;6.80;58.10
30304;DHT22;17112;48.636;10.152;2023-03-05T14:40:31;6.70;58.10
30304;DHT22;17112;48.636;10.152;2023-03-05T14:43:01;6.70;58.10
30304;DHT22;17112;48.636;10.152;2023-03-05T14:47:57;6.70;58.30
30304;DHT22;17112;48.636;10.152;2023-03-05T14:52:51;6.70;58.40
30304;DHT22;17112;48.636;10.152;2023-03-05T14:55:21;6.70;58.40
30304;DHT22;17112;48.636;10.152;2023-03-05T14:57:48;6.60;58.40
30304;DHT22;17112;48.636;10.152;2023-03-05T15:00:16;6.60;58.50
30304;DHT22;17112;48.636;10.152;2023-03-05T15:02:43;6.60;58.50
30304;DHT22;17112;48.636;10.152;2023-03-05T15:05:09;6.60;58.50
30304;DHT22;17112;48.636;10.152;2023-03-05T15:07:35;6.60;58.50
30304;DHT22;17112;48.636;10.152;2023-03-05T15:10:02;6.70;58.60
30304;DHT22;17112;48.636;10.152;2023-03-05T15:12:27;6.60;58.60
30304;DHT22;17112;48.636;10.152;2023-03-05T15:14:54;6.60;58.60
30304;DHT22;17112;48.636;10.152;2023-03-05T15:17:25;6.60;58.60
30304;DHT22;17112;48.636;10.152;2023-03-05T15:19:54;6.60;58.70
30304;DHT22;17112;48.636;10.152;2023-03-05T15:22:20;6.60;58.70
30304;DHT22;17112;48.636;10.152;2023-03-05T15:24:45;6.80;58.90
30304;DHT22;17112;48.636;10.152;2023-03-05T15:27:11;6.50;58.80
30304;DHT22;17112;48.636;10.152;2023-03-05T15:29:39;6.50;58.80
30304;DHT22;17112;48.636;10.152;2023-03-05T15:32:05;6.50;58.80
30304;DHT22;17112;48.636;10.152;2023-03-05T15:34:32;6.50;58.80
30304;DHT22;17112;48.636;10.152;2023-03-05T15:36:58;6.50;58.90
30304;DHT22;17112;48.636;10.152;2023-03-05T15:39:24;6.50;58.90
30304;DHT22;17112;48.636;10.152;2023-03-05T15:41:51;6.50;59.00
30304;DHT22;17112;48.636;10.152;2023-03-05T15:44:17;6.50;59.10
30304;DHT22;17112;48.636;10.152;2023-03-05T15:46:43;6.50;59.10
30304;DHT22;17112;48.636;10.152;2023-03-05T15:49:08;6.50;59.20
30304;DHT22;17112;48.636;10.152;2023-03-05T15:51:34;6.50;59.30
30304;DHT22;17112;48.636;10.152;2023-03-05T15:54:00;6.50;59.30
30304;DHT22;17112;48.636;10.152;2023-03-05T15:56:25;6.50;59.40
30304;DHT22;17112;48.636;10.152;2023-03-05T15:58:52;6.50;60.00
30304;DHT22;17112;48.636;10.152;2023-03-05T16:01:18;6.50;59.40
30304;DHT22;17112;48.636;10.152;2023-03-05T16:03:45;6.50;59.40
30304;DHT22;17112;48.636;10.152;2023-03-05T16:06:11;6.50;59.50
30304;DHT22;17112;48.636;10.152;2023-03-05T16:08:40;6.50;59.60
30304;DHT22;17112;48.636;10.152;2023-03-05T16:11:08;6.50;59.70
30304;DHT22;17112;48.636;10.152;2023-03-05T16:13:34;6.50;59.60
30304;DHT22;17112;48.636;10.152;2023-03-05T16:16:02;6.50;59.70
30304;DHT22;17112;48.636;10.152;2023-03-05T16:18:29;6.60;59.80
30304;DHT22;17112;48.636;10.152;2023-03-05T16:20:55;6.60;59.70
30304;DHT22;17112;48.636;10.152;2023-03-05T16:23:21;6.60;59.70
30304;DHT22;17112;48.636;10.152;2023-03-05T16:25:47;6.60;59.70
30304;DHT22;17112;48.636;10.152;2023-03-05T16:28:13;6.60;59.80
30304;DHT22;17112;48.636;10.152;2023-03-05T16:30:38;6.60;59.70
30304;DHT22;17112;48.636;10.152;2023-03-05T16:33:04;6.60;59.70
30304;DHT22;17112;48.636;10.152;2023-03-05T16:35:31;6.60;59.60
30304;DHT22;17112;48.636;10.152;2023-03-05T16:37:57;6.70;59.60
30304;DHT22;17112;48.636;10.152;2023-03-05T16:40:24;6.60;59.60
30304;DHT22;17112;48.636;10.152;2023-03-05T16:42:50;6.60;59.60
30304;DHT22;17112;48.636;10.152;2023-03-05T16:45:15;6.60;59.60
30304;DHT22;17112;48.636;10.152;2023-03-05T16:47:41;6.60;59.60
30304;DHT22;17112;48.636;10.152;2023-03-05T16:50:09;6.60;59.60
30304;DHT22;17112;48.636;10.152;2023-03-05T16:52:35;6.60;59.60
30304;DHT22;17112;48.636;10.152;2023-03-05T16:55:01;6.50;59.70
30304;DHT22;17112;48.636;10.152;2023-03-05T16:57:27;6.50;59.80
30304;DHT22;17112;48.636;10.152;2023-03-05T16:59:54;6.50;59.80
30304;DHT22;17112;48.636;10.152;2023-03-05T17:02:21;6.50;59.90
30304;DHT22;17112;48.636;10.152;2023-03-05T17:04:47;6.60;59.90
30304;DHT22;17112;48.636;10.152;2023-03-05T17:07:14;6.50;59.80
30304;DHT22;17112;48.636;10.152;2023-03-05T17:09:41;6.50;59.80
30304;DHT22;17112;48.636;10.152;2023-03-05T17:12:06;6.50;59.80